Time;durP1;ratioP1;P1;durP2;ratioP2;P2;SDS_P1;SDS_P2;PMS_P1;PMS_P2;Temp;Humidity;BMP_temperature;BMP_pressure;BME280_temperature;BME280_humidity;BME280_pressure;Samples;Min_cycle;Max_cycle;Signal;HPM_P1;HPM_P2
2023/03/07 00:02:25;;;;;;;;;;;;;;;;;;5114797;28;19950;-75
2023/03/07 00:04:51;;;;;;;;;;;;;;;;;;5096302;28;19908;-74
2023/03/07 00:07:17;;;;;;;;;;;;;;;;;;5115067;28;20459;-73
2023/03/07 00:09:43;;;;;;;;;;;;;;;;;;5114840;28;19946;-73
2023/03/07 00:12:09;;;;;;;;;;;;;;;;;;5096284;28;19908;-73
2023/03/07 00:14:35;;;;;;;;;;;;;;;;;;5114578;28;19953;-73
2023/03/07 00:17:01;;;;;;;;;;;;;;;;;;5114523;28;19908;-73
2023/03/07 00:19:27;;;;;;;;;;;;;;;;;;5114656;28;19918;-73
2023/03/07 00:21:52;;;;;;;;;;;;;;;;;;5114495;28;19947;-73
2023/03/07 00:24:18;;;;;;;;;;;;;;;;;;5114401;28;19908;-73
2023/03/07 00:26:44;;;;;;;;;;;;;;;;;;5114637;28;19907;-73
2023/03/07 00:29:10;;;;;;;;;;;;;;;;;;5114363;28;20283;-73
2023/03/07 00:31:36;;;;;;;;;;;;;;;;;;5114453;28;20368;-74
2023/03/07 00:34:02;;;;;;;;;;;;;;;;;;5095946;28;19908;-73
2023/03/07 00:36:28;;;;;;;;;;;;;;;;;;5114247;28;19908;-73
2023/03/07 00:38:54;;;;;;;;;;;;;;;;;;5114005;28;19924;-73
2023/03/07 00:41:20;;;;;;;;;;;;;;;;;;5114426;28;19960;-73
2023/03/07 00:43:46;;;;;;;;;;;;;;;;;;5114196;28;19908;-73
2023/03/07 00:46:12;;;;;;;;;;;;;;;;;;5114099;28;19957;-72
2023/03/07 00:48:38;;;;;;;;;;;;;;;;;;5114116;28;20309;-72
2023/03/07 00:51:03;;;;;;;;;;;;;;;;;;5095507;28;20014;-73
2023/03/07 00:53:29;;;;;;;;;;;;;;;;;;5114085;28;20016;-73
2023/03/07 00:55:55;;;;;;;;;;;;;;;;;;5114468;28;20390;-73
2023/03/07 00:58:21;;;;;;;;;;;;;;;;;;5114389;28;20378;-73
2023/03/07 01:00:47;;;;;;;;;;;;;;;;;;5113954;28;19915;-73
2023/03/07 01:03:13;;;;;;;;;;;;;;;;;;5095725;28;20272;-75
2023/03/07 01:05:39;;;;;;;;;;;;;;;;;;5114076;28;20279;-73
2023/03/07 01:08:05;;;;;;;;;;;;;;;;;;5113966;28;20337;-73
2023/03/07 01:10:32;;;;;;;;;;;;;;;;;;5113902;28;19914;-74
2023/03/07 01:12:58;;;;;;;;;;;;;;;;;;5114061;28;20003;-73
2023/03/07 01:15:24;;;;;;;;;;;;;;;;;;5114030;28;20344;-73
2023/03/07 01:17:49;;;;;;;;;;;;;;;;;;5113876;28;19915;-73
2023/03/07 01:20:15;;;;;;;;;;;;;;;;;;5113798;28;19912;-73
2023/03/07 01:22:41;;;;;;;;;;;;;;;;;;5095502;28;19908;-73
2023/03/07 01:25:07;;;;;;;;;;;;;;;;;;5114118;28;19964;-74
2023/03/07 01:27:33;;;;;;;;;;;;;;;;;;5113783;28;19960;-73
2023/03/07 01:29:59;;;;;;;;;;;;;;;;;;5113809;28;19915;-74
2023/03/07 01:32:25;;;;;;;;;;;;;;;;;;5114159;28;19915;-73
2023/03/07 01:34:51;;;;;;;;;;;;;;;;;;5114131;28;19998;-73
2023/03/07 01:37:18;;;;;;;;;;;;;;;;;;5113704;28;19956;-73
2023/03/07 01:39:43;;;;;;;;;;;;;;;;;;5113353;28;20360;-73
2023/03/07 01:42:09;;;;;;;;;;;;;;;;;;5113647;28;19914;-73
2023/03/07 01:44:35;;;;;;;;;;;;;;;;;;5113613;28;19999;-74
2023/03/07 01:47:01;;;;;;;;;;;;;;;;;;5113913;28;19908;-73
2023/03/07 01:49:27;;;;;;;;;;;;;;;;;;5113586;28;19911;-74
2023/03/07 01:51:53;;;;;;;;;;;;;;;;;;5113716;28;19908;-73
2023/03/07 01:54:19;;;;;;;;;;;;;;;;;;5113497;28;19998;-72
2023/03/07 01:56:45;;;;;;;;;;;;;;;;;;5113765;28;19961;-73
2023/03/07 01:59:11;;;;;;;;;;;;;;;;;;5095157;28;19912;-74
2023/03/07 02:01:37;;;;;;;;;;;;;;;;;;5112925;28;19957;-72
2023/03/07 02:04:03;;;;;;;;;;;;;;;;;;5116253;28;19907;-72
2023/03/07 02:06:29;;;;;;;;;;;;;;;;;;5117069;28;19908;-74
2023/03/07 02:08:55;;;;;;;;;;;;;;;;;;5117006;28;19908;-74
2023/03/07 02:11:21;;;;;;;;;;;;;;;;;;5116966;28;19956;-73
2023/03/07 02:13:47;;;;;;;;;;;;;;;;;;5116938;28;19912;-72
2023/03/07 02:16:13;;;;;;;;;;;;;;;;;;5116852;28;19908;-73
2023/03/07 02:18:39;;;;;;;;;;;;;;;;;;5116842;28;20295;-73
2023/03/07 02:21:08;;;;;;;;;;;;;;;;;;5116777;28;20283;-72
2023/03/07 02:23:34;;;;;;;;;;;;;;;;;;5117225;28;19912;-74
2023/03/07 02:25:59;;;;;;;;;;;;;;;;;;5116687;28;19960;-74
2023/03/07 02:28:25;;;;;;;;;;;;;;;;;;5116752;28;19908;-74
2023/03/07 02:30:51;;;;;;;;;;;;;;;;;;5116664;28;19908;-73
2023/03/07 02:33:17;;;;;;;;;;;;;;;;;;5116551;28;19978;-73
2023/03/07 02:35:43;;;;;;;;;;;;;;;;;;5116871;28;19952;-74
2023/03/07 02:38:09;;;;;;;;;;;;;;;;;;5116370;28;20292;-73
2023/03/07 02:40:35;;;;;;;;;;;;;;;;;;5116413;28;19911;-73
2023/03/07 02:43:04;;;;;;;;;;;;;;;;;;5116422;28;19915;-72
2023/03/07 02:45:30;;;;;;;;;;;;;;;;;;5116799;28;19907;-73
2023/03/07 02:47:56;;;;;;;;;;;;;;;;;;5116525;28;19914;-73
2023/03/07 02:50:22;;;;;;;;;;;;;;;;;;5097866;28;19947;-72
2023/03/07 02:52:48;;;;;;;;;;;;;;;;;;5116216;28;19911;-73
2023/03/07 02:55:15;;;;;;;;;;;;;;;;;;5116079;28;19907;-73
2023/03/07 02:57:41;;;;;;;;;;;;;;;;;;5115959;28;19907;-74
2023/03/07 03:00:07;;;;;;;;;;;;;;;;;;5097587;28;19915;-74
2023/03/07 03:02:33;;;;;;;;;;;;;;;;;;5116238;28;19912;-74
2023/03/07 03:04:59;;;;;;;;;;;;;;;;;;5116078;28;20386;-74
2023/03/07 03:07:24;;;;;;;;;;;;;;;;;;5115924;28;19908;-73
2023/03/07 03:09:50;;;;;;;;;;;;;;;;;;5115867;28;19912;-74
2023/03/07 03:12:16;;;;;;;;;;;;;;;;;;5115832;28;20045;-72
2023/03/07 03:14:42;;;;;;;;;;;;;;;;;;5115695;28;20356;-74
2023/03/07 03:17:08;;;;;;;;;;;;;;;;;;5115817;28;19915;-73
2023/03/07 03:19:34;;;;;;;;;;;;;;;;;;5115577;28;19912;-74
2023/03/07 03:22:00;;;;;;;;;;;;;;;;;;5115926;28;19961;-72
2023/03/07 03:24:26;;;;;;;;;;;;;;;;;;5115805;28;19908;-73
2023/03/07 03:26:52;;;;;;;;;;;;;;;;;;5115542;28;19908;-74
2023/03/07 03:29:18;;;;;;;;;;;;;;;;;;5115391;28;20279;-73
2023/03/07 03:31:44;;;;;;;;;;;;;;;;;;5115780;28;20401;-73
2023/03/07 03:34:10;;;;;;;;;;;;;;;;;;5115342;28;19908;-72
2023/03/07 03:36:36;;;;;;;;;;;;;;;;;;5115570;28;20040;-72
2023/03/07 03:39:02;;;;;;;;;;;;;;;;;;5114972;28;19927;-72
2023/03/07 03:41:28;;;;;;;;;;;;;;;;;;5096857;28;19919;-73
2023/03/07 03:43:54;;;;;;;;;;;;;;;;;;5115161;28;19908;-75
2023/03/07 03:46:20;;;;;;;;;;;;;;;;;;5115369;28;19915;-73
2023/03/07 03:48:46;;;;;;;;;;;;;;;;;;5115418;28;19907;-72
2023/03/07 03:51:13;;;;;;;;;;;;;;;;;;5115232;28;20006;-72
2023/03/07 03:53:39;;;;;;;;;;;;;;;;;;5114985;28;20356;-73
2023/03/07 03:56:05;;;;;;;;;;;;;;;;;;5115242;28;19908;-72
2023/03/07 03:58:31;;;;;;;;;;;;;;;;;;5114856;28;19915;-73
2023/03/07 04:00:57;;;;;;;;;;;;;;;;;;5114799;28;19916;-73
2023/03/07 04:03:23;;;;;;;;;;;;;;;;;;5096558;28;19957;-72
2023/03/07 04:05:49;;;;;;;;;;;;;;;;;;5096502;28;19915;-71
2023/03/07 04:08:15;;;;;;;;;;;;;;;;;;5114731;28;20363;-74
2023/03/07 04:10:42;;;;;;;;;;;;;;;;;;5114689;28;19907;-73
2023/03/07 04:13:08;;;;;;;;;;;;;;;;;;5114886;28;19911;-73
2023/03/07 04:15:33;;;;;;;;;;;;;;;;;;5114589;28;20311;-73
2023/03/07 04:17:59;;;;;;;;;;;;;;;;;;5096262;28;20356;-73
2023/03/07 04:20:25;;;;;;;;;;;;;;;;;;5114469;28;20014;-73
2023/03/07 04:22:51;;;;;;;;;;;;;;;;;;5114483;28;19915;-73
2023/03/07 04:25:17;;;;;;;;;;;;;;;;;;5114269;28;19908;-73
2023/03/07 04:27:43;;;;;;;;;;;;;;;;;;5114526;28;19911;-74
2023/03/07 04:30:09;;;;;;;;;;;;;;;;;;5114380;28;19914;-73
2023/03/07 04:32:35;;;;;;;;;;;;;;;;;;5114371;28;20320;-73
2023/03/07 04:35:01;;;;;;;;;;;;;;;;;;5114418;28;19908;-73
2023/03/07 04:37:27;;;;;;;;;;;;;;;;;;5114050;28;19908;-73
2023/03/07 04:39:53;;;;;;;;;;;;;;;;;;5095691;28;19916;-73
2023/03/07 04:42:19;;;;;;;;;;;;;;;;;;5114716;28;20398;-73
2023/03/07 04:44:45;;;;;;;;;;;;;;;;;;5114199;28;19995;-73
2023/03/07 04:47:11;;;;;;;;;;;;;;;;;;5114498;28;20368;-73
2023/03/07 04:49:37;;;;;;;;;;;;;;;;;;5114223;28;19907;-73
2023/03/07 04:52:03;;;;;;;;;;;;;;;;;;5114164;28;20378;-73
2023/03/07 04:54:29;;;;;;;;;;;;;;;;;;5114084;28;19915;-73
2023/03/07 04:56:55;;;;;;;;;;;;;;;;;;5114031;28;19908;-73
2023/03/07 04:59:21;;;;;;;;;;;;;;;;;;5113974;28;19945;-73
2023/03/07 05:01:47;;;;;;;;;;;;;;;;;;5114046;28;19907;-73
2023/03/07 05:04:13;;;;;;;;;;;;;;;;;;5095730;28;19973;-73
2023/03/07 05:06:38;;;;;;;;;;;;;;;;;;5114017;28;19915;-73
2023/03/07 05:09:04;;;;;;;;;;;;;;;;;;5114299;28;19908;-73
2023/03/07 05:11:30;;;;;;;;;;;;;;;;;;5114081;28;19912;-73
2023/03/07 05:13:56;;;;;;;;;;;;;;;;;;5113944;28;19907;-74
2023/03/07 05:16:22;;;;;;;;;;;;;;;;;;5113920;28;19908;-73
2023/03/07 05:18:48;;;;;;;;;;;;;;;;;;5095558;28;19911;-72
2023/03/07 05:21:14;;;;;;;;;;;;;;;;;;5114164;28;19995;-73
2023/03/07 05:23:40;;;;;;;;;;;;;;;;;;5114055;28;19908;-73
2023/03/07 05:26:06;;;;;;;;;;;;;;;;;;5113758;28;19908;-73
2023/03/07 05:28:32;;;;;;;;;;;;;;;;;;5113823;28;19915;-73
2023/03/07 05:30:58;;;;;;;;;;;;;;;;;;5113776;28;20387;-75
2023/03/07 05:33:24;;;;;;;;;;;;;;;;;;5113766;28;19911;-73
2023/03/07 05:35:50;;;;;;;;;;;;;;;;;;5113756;28;19914;-73
2023/03/07 05:38:16;;;;;;;;;;;;;;;;;;5115386;28;20010;-73
2023/03/07 05:40:43;;;;;;;;;;;;;;;;;;5117546;28;19919;-73
2023/03/07 05:43:08;;;;;;;;;;;;;;;;;;5117512;28;19911;-73
2023/03/07 05:45:34;;;;;;;;;;;;;;;;;;5117490;28;20293;-73
2023/03/07 05:48:00;;;;;;;;;;;;;;;;;;5117698;28;20367;-73
2023/03/07 05:50:26;;;;;;;;;;;;;;;;;;5099065;28;19908;-73
2023/03/07 05:52:52;;;;;;;;;;;;;;;;;;5117361;28;19908;-74
2023/03/07 05:55:18;;;;;;;;;;;;;;;;;;5117316;28;19965;-73
2023/03/07 05:57:44;;;;;;;;;;;;;;;;;;5098877;28;19914;-73
2023/03/07 06:00:10;;;;;;;;;;;;;;;;;;5117281;28;20007;-73
2023/03/07 06:02:36;;;;;;;;;;;;;;;;;;5117194;28;19935;-73
2023/03/07 06:05:02;;;;;;;;;;;;;;;;;;5098544;28;19908;-73
2023/03/07 06:07:28;;;;;;;;;;;;;;;;;;5098767;28;19918;-72
2023/03/07 06:09:54;;;;;;;;;;;;;;;;;;5117135;28;19908;-72
2023/03/07 06:12:20;;;;;;;;;;;;;;;;;;5117012;28;19907;-73
2023/03/07 06:14:46;;;;;;;;;;;;;;;;;;5116980;28;19916;-73
2023/03/07 06:17:11;;;;;;;;;;;;;;;;;;5116880;28;19908;-73
2023/03/07 06:19:37;;;;;;;;;;;;;;;;;;5117075;28;20020;-75
2023/03/07 06:22:03;;;;;;;;;;;;;;;;;;5117020;28;19915;-74
2023/03/07 06:24:29;;;;;;;;;;;;;;;;;;5116744;28;19908;-73
2023/03/07 06:26:55;;;;;;;;;;;;;;;;;;5116694;28;19914;-74
2023/03/07 06:29:21;;;;;;;;;;;;;;;;;;5116831;28;19994;-73
2023/03/07 06:31:47;;;;;;;;;;;;;;;;;;5116958;28;19915;-73
2023/03/07 06:34:13;;;;;;;;;;;;;;;;;;5116781;28;19908;-73
2023/03/07 06:36:39;;;;;;;;;;;;;;;;;;5116463;28;19908;-72
2023/03/07 06:39:05;;;;;;;;;;;;;;;;;;5116210;28;19962;-72
2023/03/07 06:41:31;;;;;;;;;;;;;;;;;;5116451;28;19908;-73
2023/03/07 06:43:57;;;;;;;;;;;;;;;;;;5116398;28;19908;-73
2023/03/07 06:46:23;;;;;;;;;;;;;;;;;;5116438;28;19908;-73
2023/03/07 06:48:50;;;;;;;;;;;;;;;;;;5115850;28;20333;-74
2023/03/07 06:51:16;;;;;;;;;;;;;;;;;;5116191;28;19907;-72
2023/03/07 06:53:42;;;;;;;;;;;;;;;;;;5116210;28;19915;-73
2023/03/07 06:56:08;;;;;;;;;;;;;;;;;;5097625;28;19911;-73
2023/03/07 06:58:34;;;;;;;;;;;;;;;;;;5116055;28;19990;-73
2023/03/07 07:01:00;;;;;;;;;;;;;;;;;;5115983;28;19912;-73
2023/03/07 07:03:26;;;;;;;;;;;;;;;;;;5116014;28;19908;-72
2023/03/07 07:05:52;;;;;;;;;;;;;;;;;;5116149;28;19908;-72
2023/03/07 07:08:18;;;;;;;;;;;;;;;;;;5115919;28;19912;-74
2023/03/07 07:10:44;;;;;;;;;;;;;;;;;;5116085;28;19907;-73
2023/03/07 07:13:11;;;;;;;;;;;;;;;;;;5115998;28;19915;-74
2023/03/07 07:15:37;;;;;;;;;;;;;;;;;;5097399;28;19950;-73
2023/03/07 07:18:03;;;;;;;;;;;;;;;;;;5115738;28;19915;-71
2023/03/07 07:20:29;;;;;;;;;;;;;;;;;;5097308;28;20261;-73
2023/03/07 07:22:55;;;;;;;;;;;;;;;;;;5115939;28;20391;-73
2023/03/07 07:25:21;;;;;;;;;;;;;;;;;;5115681;28;19996;-73
2023/03/07 07:27:46;;;;;;;;;;;;;;;;;;5115565;28;19908;-73
2023/03/07 07:30:12;;;;;;;;;;;;;;;;;;5115490;28;20319;-73
2023/03/07 07:32:38;;;;;;;;;;;;;;;;;;5115431;28;19911;-74
2023/03/07 07:35:04;;;;;;;;;;;;;;;;;;5115383;28;19908;-74
2023/03/07 07:37:30;;;;;;;;;;;;;;;;;;5115230;28;19964;-72
2023/03/07 07:39:56;;;;;;;;;;;;;;;;;;5115331;28;19912;-72
2023/03/07 07:42:22;;;;;;;;;;;;;;;;;;5115246;28;19908;-73
2023/03/07 07:44:48;;;;;;;;;;;;;;;;;;5115186;28;20352;-72
2023/03/07 07:47:14;;;;;;;;;;;;;;;;;;5115436;28;19915;-73
2023/03/07 07:49:40;;;;;;;;;;;;;;;;;;5115194;28;19943;-74
2023/03/07 07:52:06;;;;;;;;;;;;;;;;;;5115049;28;19915;-74
2023/03/07 07:54:32;;;;;;;;;;;;;;;;;;5114994;28;19908;-74
2023/03/07 07:56:57;;;;;;;;;;;;;;;;;;5115150;28;20283;-73
2023/03/07 07:59:23;;;;;;;;;;;;;;;;;;5115081;28;20327;-73
2023/03/07 08:01:49;;;;;;;;;;;;;;;;;;5114151;28;19908;-75
2023/03/07 08:04:15;;;;;;;;;;;;;;;;;;5114815;28;20368;-72
2023/03/07 08:06:43;;;;;;;;;;;;;;;;;;5115127;28;19907;-72
2023/03/07 08:09:09;;;;;;;;;;;;;;;;;;5114773;28;20330;-73
2023/03/07 08:11:34;;;;;;;;;;;;;;;;;;5114660;28;19914;-73
2023/03/07 08:14:00;;;;;;;;;;;;;;;;;;5114729;28;20360;-73
2023/03/07 08:16:26;;;;;;;;;;;;;;;;;;5114604;28;20368;-74
2023/03/07 08:18:52;;;;;;;;;;;;;;;;;;5114479;28;20390;-73
2023/03/07 08:21:18;;;;;;;;;;;;;;;;;;5114836;28;19911;-74
2023/03/07 08:23:44;;;;;;;;;;;;;;;;;;5114470;28;20011;-73
2023/03/07 08:26:12;;;;;;;;;;;;;;;;;;5114452;28;19961;-74
2023/03/07 08:28:38;;;;;;;;;;;;;;;;;;5114430;28;20388;-73
2023/03/07 08:31:03;;;;;;;;;;;;;;;;;;5114646;28;19908;-72
2023/03/07 08:33:29;;;;;;;;;;;;;;;;;;5114377;28;19996;-73
2023/03/07 08:35:55;;;;;;;;;;;;;;;;;;5114345;28;19908;-74
2023/03/07 08:38:21;;;;;;;;;;;;;;;;;;5114107;28;19919;-75
2023/03/07 08:40:47;;;;;;;;;;;;;;;;;;5114202;28;19912;-74
2023/03/07 08:43:13;;;;;;;;;;;;;;;;;;5114270;28;19908;-73
2023/03/07 08:45:39;;;;;;;;;;;;;;;;;;5114190;28;20003;-74
2023/03/07 08:48:05;;;;;;;;;;;;;;;;;;5114392;28;19915;-73
2023/03/07 08:50:31;;;;;;;;;;;;;;;;;;5114113;28;20288;-74
2023/03/07 08:52:57;;;;;;;;;;;;;;;;;;5095824;28;19917;-74
2023/03/07 08:55:23;;;;;;;;;;;;;;;;;;5114144;28;19944;-73
2023/03/07 08:57:49;;;;;;;;;;;;;;;;;;5114077;28;20373;-73
2023/03/07 09:00:15;;;;;;;;;;;;;;;;;;5095747;28;20379;-72
2023/03/07 09:02:40;;;;;;;;;;;;;;;;;;5114180;28;19907;-75
2023/03/07 09:05:06;;;;;;;;;;;;;;;;;;5114115;28;20316;-73
2023/03/07 09:07:32;;;;;;;;;;;;;;;;;;5114014;28;20257;-74
2023/03/07 09:09:58;;;;;;;;;;;;;;;;;;5114339;28;19915;-74
2023/03/07 09:12:24;;;;;;;;;;;;;;;;;;5116138;28;19915;-73
2023/03/07 09:14:50;;;;;;;;;;;;;;;;;;5117919;28;19908;-73
2023/03/07 09:17:17;;;;;;;;;;;;;;;;;;5100075;28;20344;-73
2023/03/07 09:19:43;;;;;;;;;;;;;;;;;;5099699;28;19950;-75
2023/03/07 09:22:09;;;;;;;;;;;;;;;;;;5118228;28;20283;-74
2023/03/07 09:24:35;;;;;;;;;;;;;;;;;;5117994;28;19908;-75
2023/03/07 09:27:02;;;;;;;;;;;;;;;;;;5099434;28;19954;-75
2023/03/07 09:29:29;;;;;;;;;;;;;;;;;;5099648;28;20031;-74
2023/03/07 09:31:56;;;;;;;;;;;;;;;;;;5117726;28;20321;-74
2023/03/07 09:34:24;;;;;;;;;;;;;;;;;;5116242;28;20049;-75
2023/03/07 09:36:51;;;;;;;;;;;;;;;;;;5099375;28;19908;-75
2023/03/07 09:39:17;;;;;;;;;;;;;;;;;;5117367;28;19920;-75
2023/03/07 09:41:43;;;;;;;;;;;;;;;;;;5118176;28;19915;-76
2023/03/07 09:44:09;;;;;;;;;;;;;;;;;;5117502;28;19912;-75
2023/03/07 09:46:34;;;;;;;;;;;;;;;;;;5117520;28;20367;-74
2023/03/07 09:49:00;;;;;;;;;;;;;;;;;;5117472;28;19907;-76
2023/03/07 09:51:26;;;;;;;;;;;;;;;;;;5099123;28;19912;-75
2023/03/07 09:53:52;;;;;;;;;;;;;;;;;;5117710;28;20398;-75
2023/03/07 09:56:18;;;;;;;;;;;;;;;;;;5117266;28;19915;-75
2023/03/07 09:58:44;;;;;;;;;;;;;;;;;;5117460;28;19908;-77
2023/03/07 10:01:11;;;;;;;;;;;;;;;;;;5117235;28;19964;-75
2023/03/07 10:03:37;;;;;;;;;;;;;;;;;;5117189;28;19956;-75
2023/03/07 10:06:03;;;;;;;;;;;;;;;;;;5117136;28;19911;-74
2023/03/07 10:08:29;;;;;;;;;;;;;;;;;;5098808;28;19908;-75
2023/03/07 10:10:55;;;;;;;;;;;;;;;;;;5117043;28;19994;-74
2023/03/07 10:13:21;;;;;;;;;;;;;;;;;;5116971;28;20375;-73
2023/03/07 10:15:47;;;;;;;;;;;;;;;;;;5116914;28;19908;-74
2023/03/07 10:18:13;;;;;;;;;;;;;;;;;;5116928;28;20002;-75
2023/03/07 10:20:39;;;;;;;;;;;;;;;;;;5098483;28;19915;-73
2023/03/07 10:23:05;;;;;;;;;;;;;;;;;;5116161;28;20388;-74
2023/03/07 10:25:31;;;;;;;;;;;;;;;;;;5116618;28;19977;-74
2023/03/07 10:27:57;;;;;;;;;;;;;;;;;;5116985;28;19907;-74
2023/03/07 10:30:23;;;;;;;;;;;;;;;;;;5116656;28;19915;-74
2023/03/07 10:32:49;;;;;;;;;;;;;;;;;;5116724;28;19912;-73
2023/03/07 10:35:19;;;;;;;;;;;;;;;;;;5116565;28;20002;-74
2023/03/07 10:37:47;;;;;;;;;;;;;;;;;;5116382;28;19984;-73
2023/03/07 10:40:13;;;;;;;;;;;;;;;;;;5116940;28;19953;-74
2023/03/07 10:42:39;;;;;;;;;;;;;;;;;;5116467;28;19919;-74
2023/03/07 10:45:05;;;;;;;;;;;;;;;;;;5116979;28;19908;-74
2023/03/07 10:47:31;;;;;;;;;;;;;;;;;;5116355;28;19908;-75
2023/03/07 10:49:57;;;;;;;;;;;;;;;;;;5097965;28;19907;-73
2023/03/07 10:52:23;;;;;;;;;;;;;;;;;;5116316;28;20290;-75
2023/03/07 10:54:49;;;;;;;;;;;;;;;;;;5116208;28;20399;-74
2023/03/07 10:57:15;;;;;;;;;;;;;;;;;;5116286;28;19908;-74
2023/03/07 10:59:46;;;;;;;;;;;;;;;;;;5097759;28;19998;-74
2023/03/07 11:02:12;;;;;;;;;;;;;;;;;;5116007;28;19908;-73
2023/03/07 11:04:38;;;;;;;;;;;;;;;;;;5116616;28;20069;-74
2023/03/07 11:07:04;;;;;;;;;;;;;;;;;;5116000;28;19935;-75
2023/03/07 11:09:30;;;;;;;;;;;;;;;;;;5116206;28;19908;-75
2023/03/07 11:11:56;;;;;;;;;;;;;;;;;;5115874;28;19915;-74
2023/03/07 11:14:22;;;;;;;;;;;;;;;;;;5115726;28;19908;-74
2023/03/07 11:16:48;;;;;;;;;;;;;;;;;;5115797;28;20391;-73
2023/03/07 11:19:14;;;;;;;;;;;;;;;;;;5115695;28;19918;-74
2023/03/07 11:21:40;;;;;;;;;;;;;;;;;;5115667;28;19907;-74
2023/03/07 11:24:06;;;;;;;;;;;;;;;;;;5115850;28;19991;-74
2023/03/07 11:26:32;;;;;;;;;;;;;;;;;;5115592;28;19908;-74
2023/03/07 11:28:58;;;;;;;;;;;;;;;;;;5115806;28;20448;-74
2023/03/07 11:31:24;;;;;;;;;;;;;;;;;;5115455;28;20432;-75
2023/03/07 11:33:49;;;;;;;;;;;;;;;;;;5115567;28;19907;-73
2023/03/07 11:36:15;;;;;;;;;;;;;;;;;;5114869;28;19918;-73
2023/03/07 11:38:41;;;;;;;;;;;;;;;;;;5114440;28;19995;-73
2023/03/07 11:41:07;;;;;;;;;;;;;;;;;;5109455;28;19955;-73
2023/03/07 11:43:33;;;;;;;;;;;;;;;;;;5094551;28;19918;-73
2023/03/07 11:45:59;;;;;;;;;;;;;;;;;;5101976;28;20387;-73
2023/03/07 11:48:25;;;;;;;;;;;;;;;;;;5105406;28;19950;-74
2023/03/07 11:50:51;;;;;;;;;;;;;;;;;;5104930;28;19908;-73
2023/03/07 11:53:17;;;;;;;;;;;;;;;;;;5102862;28;19908;-74
2023/03/07 11:55:43;;;;;;;;;;;;;;;;;;5103794;28;19931;-73
2023/03/07 11:58:09;;;;;;;;;;;;;;;;;;5104531;28;19918;-74
2023/03/07 12:00:36;;;;;;;;;;;;;;;;;;5096169;28;19915;-73
2023/03/07 12:03:01;;;;;;;;;;;;;;;;;;5102593;28;20294;-74
2023/03/07 12:05:27;;;;;;;;;;;;;;;;;;5103958;28;19908;-74
2023/03/07 12:07:53;;;;;;;;;;;;;;;;;;5105051;28;19908;-73
2023/03/07 12:10:19;;;;;;;;;;;;;;;;;;5104992;28;20272;-73
2023/03/07 12:12:45;;;;;;;;;;;;;;;;;;5105048;28;19915;-74
2023/03/07 12:15:11;;;;;;;;;;;;;;;;;;5104342;28;20368;-74
2023/03/07 12:17:37;;;;;;;;;;;;;;;;;;5102667;28;20396;-73
2023/03/07 12:20:03;;;;;;;;;;;;;;;;;;5104362;28;19912;-74
2023/03/07 12:22:29;;;;;;;;;;;;;;;;;;5104039;28;19943;-73
2023/03/07 12:24:55;;;;;;;;;;;;;;;;;;5102601;28;20338;-73
2023/03/07 12:27:22;;;;;;;;;;;;;;;;;;5102309;28;19915;-73
2023/03/07 12:29:48;;;;;;;;;;;;;;;;;;5094143;28;19916;-73
2023/03/07 12:32:14;;;;;;;;;;;;;;;;;;5094018;28;19958;-73
2023/03/07 12:34:40;;;;;;;;;;;;;;;;;;5094266;28;19909;-73
2023/03/07 12:37:06;;;;;;;;;;;;;;;;;;5094018;28;19908;-73
2023/03/07 12:39:32;;;;;;;;;;;;;;;;;;5093473;28;20003;-73
2023/03/07 12:41:58;;;;;;;;;;;;;;;;;;5093820;28;19912;-72
2023/03/07 12:44:24;;;;;;;;;;;;;;;;;;5094152;28;20326;-73
2023/03/07 12:46:50;;;;;;;;;;;;;;;;;;5075301;28;19908;-73
2023/03/07 12:49:16;;;;;;;;;;;;;;;;;;5093845;28;19908;-73
2023/03/07 12:51:42;;;;;;;;;;;;;;;;;;5093939;28;19911;-73
2023/03/07 12:54:08;;;;;;;;;;;;;;;;;;5093773;28;20408;-73
2023/03/07 12:56:34;;;;;;;;;;;;;;;;;;5093667;28;20002;-74
2023/03/07 12:59:01;;;;;;;;;;;;;;;;;;5093646;28;19908;-72
2023/03/07 13:01:27;;;;;;;;;;;;;;;;;;5094280;28;19957;-73
2023/03/07 13:03:53;;;;;;;;;;;;;;;;;;5093624;28;20279;-73
2023/03/07 13:06:19;;;;;;;;;;;;;;;;;;5093632;28;19912;-73
2023/03/07 13:08:45;;;;;;;;;;;;;;;;;;5093794;28;19908;-74
2023/03/07 13:11:13;;;;;;;;;;;;;;;;;;5093808;28;19974;-74
2023/03/07 13:13:38;;;;;;;;;;;;;;;;;;5094110;28;19912;-73
2023/03/07 13:16:04;;;;;;;;;;;;;;;;;;5093574;28;19995;-74
2023/03/07 13:18:30;;;;;;;;;;;;;;;;;;5093576;28;19931;-75
2023/03/07 13:20:56;;;;;;;;;;;;;;;;;;5093400;28;20357;-73
2023/03/07 13:23:22;;;;;;;;;;;;;;;;;;5093608;28;19908;-74
2023/03/07 13:25:50;;;;;;;;;;;;;;;;;;5093496;28;19957;-74
2023/03/07 13:28:17;;;;;;;;;;;;;;;;;;5093864;28;19912;-74
2023/03/07 13:30:43;;;;;;;;;;;;;;;;;;5093996;28;19915;-74
2023/03/07 13:33:09;;;;;;;;;;;;;;;;;;5093588;28;20388;-73
2023/03/07 13:35:38;;;;;;;;;;;;;;;;;;5093334;28;19908;-73
2023/03/07 13:38:04;;;;;;;;;;;;;;;;;;5093200;28;19968;-74
2023/03/07 13:40:30;;;;;;;;;;;;;;;;;;5093507;28;19952;-73
2023/03/07 13:42:56;;;;;;;;;;;;;;;;;;5093611;28;20318;-74
2023/03/07 13:45:22;;;;;;;;;;;;;;;;;;5093873;28;19978;-73
2023/03/07 13:47:48;;;;;;;;;;;;;;;;;;5093266;28;19915;-73
2023/03/07 13:50:14;;;;;;;;;;;;;;;;;;5093298;28;20341;-74
2023/03/07 13:52:40;;;;;;;;;;;;;;;;;;5075107;28;19912;-74
2023/03/07 13:55:06;;;;;;;;;;;;;;;;;;5093482;28;19995;-74
2023/03/07 13:57:32;;;;;;;;;;;;;;;;;;5093185;28;19940;-74
2023/03/07 13:59:58;;;;;;;;;;;;;;;;;;5095801;28;20288;-73
2023/03/07 14:02:24;;;;;;;;;;;;;;;;;;5097237;28;19987;-73
2023/03/07 14:04:53;;;;;;;;;;;;;;;;;;5078219;28;20360;-72
2023/03/07 14:07:20;;;;;;;;;;;;;;;;;;5096661;28;19912;-74
2023/03/07 14:09:49;;;;;;;;;;;;;;;;;;5096652;28;19908;-74
2023/03/07 14:12:14;;;;;;;;;;;;;;;;;;5096623;28;19909;-74
2023/03/07 14:14:40;;;;;;;;;;;;;;;;;;5096607;28;20049;-73
2023/03/07 14:17:07;;;;;;;;;;;;;;;;;;5096576;28;19908;-73
2023/03/07 14:19:33;;;;;;;;;;;;;;;;;;5078215;28;19912;-74
2023/03/07 14:21:59;;;;;;;;;;;;;;;;;;5078266;28;19918;-74
2023/03/07 14:24:26;;;;;;;;;;;;;;;;;;5096617;28;19908;-73
2023/03/07 14:26:52;;;;;;;;;;;;;;;;;;5096661;28;20265;-74
2023/03/07 14:29:18;;;;;;;;;;;;;;;;;;5096341;28;19958;-73
2023/03/07 14:31:44;;;;;;;;;;;;;;;;;;5096504;28;19957;-73
2023/03/07 14:34:10;;;;;;;;;;;;;;;;;;5096246;28;19912;-73
2023/03/07 14:36:36;;;;;;;;;;;;;;;;;;5096162;28;20322;-74
2023/03/07 14:39:03;;;;;;;;;;;;;;;;;;5095836;28;20394;-72
2023/03/07 14:41:34;;;;;;;;;;;;;;;;;;5096064;28;20295;-73
2023/03/07 14:44:01;;;;;;;;;;;;;;;;;;5096224;28;19908;-73
2023/03/07 14:46:27;;;;;;;;;;;;;;;;;;5096242;28;19939;-74
2023/03/07 14:48:53;;;;;;;;;;;;;;;;;;5096513;28;19915;-75
2023/03/07 14:51:19;;;;;;;;;;;;;;;;;;5095857;28;19912;-73
2023/03/07 14:53:45;;;;;;;;;;;;;;;;;;5095985;28;19947;-73
2023/03/07 14:56:11;;;;;;;;;;;;;;;;;;5095746;28;19931;-72
2023/03/07 14:58:37;;;;;;;;;;;;;;;;;;5096344;28;20333;-73
2023/03/07 15:01:03;;;;;;;;;;;;;;;;;;5095641;28;19919;-73
2023/03/07 15:03:29;;;;;;;;;;;;;;;;;;5095667;28;19962;-73
2023/03/07 15:05:56;;;;;;;;;;;;;;;;;;5077495;28;19908;-73
2023/03/07 15:08:22;;;;;;;;;;;;;;;;;;5095494;28;19908;-72
2023/03/07 15:10:48;;;;;;;;;;;;;;;;;;5095502;28;20269;-73
2023/03/07 15:13:13;;;;;;;;;;;;;;;;;;5095503;28;19996;-73
2023/03/07 15:15:39;;;;;;;;;;;;;;;;;;5095731;28;19916;-74
2023/03/07 15:18:05;;;;;;;;;;;;;;;;;;5095361;28;19908;-74
2023/03/07 15:20:31;;;;;;;;;;;;;;;;;;5095275;28;19912;-73
2023/03/07 15:22:57;;;;;;;;;;;;;;;;;;5095576;28;19915;-75
2023/03/07 15:25:23;;;;;;;;;;;;;;;;;;5095462;28;20397;-73
2023/03/07 15:27:49;;;;;;;;;;;;;;;;;;5095289;28;19908;-73
2023/03/07 15:30:15;;;;;;;;;;;;;;;;;;5095178;28;19916;-74
2023/03/07 15:32:41;;;;;;;;;;;;;;;;;;5076939;28;20265;-74
2023/03/07 15:35:07;;;;;;;;;;;;;;;;;;5095320;28;20380;-73
2023/03/07 15:37:33;;;;;;;;;;;;;;;;;;5076620;28;19919;-74
2023/03/07 15:39:59;;;;;;;;;;;;;;;;;;5095045;28;20368;-73
2023/03/07 15:42:25;;;;;;;;;;;;;;;;;;5094939;28;20280;-73
2023/03/07 15:44:51;;;;;;;;;;;;;;;;;;5094847;28;19908;-72
2023/03/07 15:47:18;;;;;;;;;;;;;;;;;;5095068;28;19908;-73
2023/03/07 15:49:44;;;;;;;;;;;;;;;;;;5076541;28;19908;-73
2023/03/07 15:52:10;;;;;;;;;;;;;;;;;;5094760;28;19908;-72
2023/03/07 15:54:37;;;;;;;;;;;;;;;;;;5094653;28;19946;-73
2023/03/07 15:57:03;;;;;;;;;;;;;;;;;;5076437;28;19915;-73
2023/03/07 15:59:29;;;;;;;;;;;;;;;;;;5094525;28;19919;-73
2023/03/07 16:01:55;;;;;;;;;;;;;;;;;;5094670;28;19908;-73
2023/03/07 16:04:21;;;;;;;;;;;;;;;;;;5094489;28;19915;-72
2023/03/07 16:06:47;;;;;;;;;;;;;;;;;;5094511;28;19908;-74
2023/03/07 16:09:13;;;;;;;;;;;;;;;;;;5095060;28;20376;-73
2023/03/07 16:11:39;;;;;;;;;;;;;;;;;;5076241;28;20288;-73
2023/03/07 16:14:05;;;;;;;;;;;;;;;;;;5094339;28;19908;-74
2023/03/07 16:16:31;;;;;;;;;;;;;;;;;;5094408;28;19908;-74
2023/03/07 16:18:57;;;;;;;;;;;;;;;;;;5094266;28;19957;-73
2023/03/07 16:21:23;;;;;;;;;;;;;;;;;;5093649;28;19961;-74
2023/03/07 16:23:49;;;;;;;;;;;;;;;;;;5094184;28;19912;-73
2023/03/07 16:26:15;;;;;;;;;;;;;;;;;;5094138;28;19931;-73
2023/03/07 16:28:41;;;;;;;;;;;;;;;;;;5094528;28;20360;-74
2023/03/07 16:31:07;;;;;;;;;;;;;;;;;;5094075;28;19908;-73
2023/03/07 16:33:33;;;;;;;;;;;;;;;;;;5075787;28;20388;-73
2023/03/07 16:35:59;;;;;;;;;;;;;;;;;;5094010;28;20422;-73
2023/03/07 16:38:25;;;;;;;;;;;;;;;;;;5093764;28;19920;-74